sensor_id;sensor_type;location;lat;lon;timestamp;pressure;altitude;pressure_sealevel;temperature
15333;BMP180;7766;51.534;6.722;2022-11-22T00:00:42;98601.78;;;7.92
15333;BMP180;7766;51.534;6.722;2022-11-22T00:01:43;98606.56;;;7.94
15333;BMP180;7766;51.534;6.722;2022-11-22T00:02:44;98601.16;;;7.96
15333;BMP180;7766;51.534;6.722;2022-11-22T00:03:44;98608.34;;;8.00
15333;BMP180;7766;51.534;6.722;2022-11-22T00:04:45;98599.13;;;7.98
15333;BMP180;7766;51.534;6.722;2022-11-22T00:05:46;98606.38;;;7.96
15333;BMP180;7766;51.534;6.722;2022-11-22T00:06:47;98608.34;;;8.00
15333;BMP180;7766;51.534;6.722;2022-11-22T00:07:48;98601.97;;;7.96
15333;BMP180;7766;51.534;6.722;2022-11-22T00:08:49;98601.88;;;8.03
15333;BMP180;7766;51.534;6.722;2022-11-22T00:09:49;98601.97;;;7.96
15333;BMP180;7766;51.534;6.722;2022-11-22T00:10:51;98597.09;;;8.00
15333;BMP180;7766;51.534;6.722;2022-11-22T00:11:52;98601.97;;;7.96
15333;BMP180;7766;51.534;6.722;2022-11-22T00:12:53;98599.25;;;8.03
15333;BMP180;7766;51.534;6.722;2022-11-22T00:13:54;98603.50;;;8.04
15333;BMP180;7766;51.534;6.722;2022-11-22T00:14:55;98603.88;;;8.07
15333;BMP180;7766;51.534;6.722;2022-11-22T00:16:00;98601.25;;;8.07
15333;BMP180;7766;51.534;6.722;2022-11-22T00:17:01;98596.75;;;8.14
15333;BMP180;7766;51.534;6.722;2022-11-22T00:18:02;98598.94;;;8.17
15333;BMP180;7766;51.534;6.722;2022-11-22T00:19:03;98607.81;;;8.16
15333;BMP180;7766;51.534;6.722;2022-11-22T00:20:06;98608.06;;;8.08
15333;BMP180;7766;51.534;6.722;2022-11-22T00:21:07;98602.41;;;8.11
15333;BMP180;7766;51.534;6.722;2022-11-22T00:22:08;98607.81;;;8.16
15333;BMP180;7766;51.534;6.722;2022-11-22T00:23:09;98604.09;;;8.23
15333;BMP180;7766;51.534;6.722;2022-11-22T00:24:12;98599.88;;;8.22
15333;BMP180;7766;51.534;6.722;2022-11-22T00:25:13;98608.25;;;8.13
15333;BMP180;7766;51.534;6.722;2022-11-22T00:26:14;98601.03;;;8.08
15333;BMP180;7766;51.534;6.722;2022-11-22T00:27:15;98605.44;;;8.08
15333;BMP180;7766;51.534;6.722;2022-11-22T00:28:16;98613.47;;;8.13
15333;BMP180;7766;51.534;6.722;2022-11-22T00:29:17;98613.47;;;8.13
15333;BMP180;7766;51.534;6.722;2022-11-22T00:30:18;98609.97;;;8.19
15333;BMP180;7766;51.534;6.722;2022-11-22T00:31:19;98602.59;;;8.16
15333;BMP180;7766;51.534;6.722;2022-11-22T00:32:20;98608.25;;;8.13
15333;BMP180;7766;51.534;6.722;2022-11-22T00:33:21;98596.56;;;8.15
15333;BMP180;7766;51.534;6.722;2022-11-22T00:34:22;98601.63;;;8.10
15333;BMP180;7766;51.534;6.722;2022-11-22T00:35:23;98609.81;;;8.14
15333;BMP180;7766;51.534;6.722;2022-11-22T00:36:25;98599.78;;;8.11
15333;BMP180;7766;51.534;6.722;2022-11-22T00:37:26;98599.50;;;8.01
15333;BMP180;7766;51.534;6.722;2022-11-22T00:38:26;98606.91;;;8.04
15333;BMP180;7766;51.534;6.722;2022-11-22T00:39:27;98601.03;;;8.08
15333;BMP180;7766;51.534;6.722;2022-11-22T00:40:28;98604.94;;;8.00
15333;BMP180;7766;51.534;6.722;2022-11-22T00:41:29;98604.56;;;7.96
15333;BMP180;7766;51.534;6.722;2022-11-22T00:42:30;98597.53;;;7.97
15333;BMP180;7766;51.534;6.722;2022-11-22T00:43:31;98615.28;;;7.89
15333;BMP180;7766;51.534;6.722;2022-11-22T00:44:33;98607.44;;;7.89
15333;BMP180;7766;51.534;6.722;2022-11-22T00:45:34;98615.03;;;7.90
15333;BMP180;7766;51.534;6.722;2022-11-22T00:46:34;98624.69;;;7.90
15333;BMP180;7766;51.534;6.722;2022-11-22T00:47:35;98615.69;;;7.86
15333;BMP180;7766;51.534;6.722;2022-11-22T00:48:36;98616.94;;;7.83
15333;BMP180;7766;51.534;6.722;2022-11-22T00:49:37;98619.97;;;7.80
15333;BMP180;7766;51.534;6.722;2022-11-22T00:50:38;98618.50;;;7.84
15333;BMP180;7766;51.534;6.722;2022-11-22T00:51:39;98625.78;;;7.82
15333;BMP180;7766;51.534;6.722;2022-11-22T00:52:40;98629.75;;;7.85
15333;BMP180;7766;51.534;6.722;2022-11-22T00:53:41;98628.75;;;7.86
15333;BMP180;7766;51.534;6.722;2022-11-22T00:54:42;98620.50;;;7.89
15333;BMP180;7766;51.534;6.722;2022-11-22T00:55:45;98624.25;;;7.92
15333;BMP180;7766;51.534;6.722;2022-11-22T00:56:46;98623.69;;;7.97
15333;BMP180;7766;51.534;6.722;2022-11-22T00:57:47;98619.25;;;7.91
15333;BMP180;7766;51.534;6.722;2022-11-22T00:58:47;98621.66;;;7.92
15333;BMP180;7766;51.534;6.722;2022-11-22T00:59:48;98613.22;;;7.97
15333;BMP180;7766;51.534;6.722;2022-11-22T01:00:50;98611.03;;;7.88
15333;BMP180;7766;51.534;6.722;2022-11-22T01:01:51;98610.03;;;7.89
15333;BMP180;7766;51.534;6.722;2022-11-22T01:02:52;98614.84;;;7.92
15333;BMP180;7766;51.534;6.722;2022-11-22T01:03:53;98610.19;;;7.93
15333;BMP180;7766;51.534;6.722;2022-11-22T01:04:54;98614.69;;;7.87
15333;BMP180;7766;51.534;6.722;2022-11-22T01:05:55;98604.38;;;7.92
15333;BMP180;7766;51.534;6.722;2022-11-22T01:06:56;98605.19;;;7.92
15333;BMP180;7766;51.534;6.722;2022-11-22T01:07:57;98600.97;;;7.91
15333;BMP180;7766;51.534;6.722;2022-11-22T01:08:58;98612.84;;;7.87
15333;BMP180;7766;51.534;6.722;2022-11-22T01:09:59;98615.28;;;7.89
15333;BMP180;7766;51.534;6.722;2022-11-22T01:11:00;98615.69;;;7.86
15333;BMP180;7766;51.534;6.722;2022-11-22T01:12:01;98612.84;;;7.87
15333;BMP180;7766;51.534;6.722;2022-11-22T01:13:03;98619.59;;;7.77
15333;BMP180;7766;51.534;6.722;2022-11-22T01:14:04;98622.56;;;7.80
15333;BMP180;7766;51.534;6.722;2022-11-22T01:15:07;98626.81;;;7.81
15333;BMP180;7766;51.534;6.722;2022-11-22T01:16:10;98621.34;;;7.83
15333;BMP180;7766;51.534;6.722;2022-11-22T01:17:11;98621.94;;;7.85
15333;BMP180;7766;51.534;6.722;2022-11-22T01:18:11;98628.53;;;7.87
15333;BMP180;7766;51.534;6.722;2022-11-22T01:19:12;98625.19;;;7.80
15333;BMP180;7766;51.534;6.722;2022-11-22T01:20:13;98620.13;;;7.85
15333;BMP180;7766;51.534;6.722;2022-11-22T01:21:14;98623.91;;;7.89
15333;BMP180;7766;51.534;6.722;2022-11-22T01:22:15;98635.59;;;7.87
15333;BMP180;7766;51.534;6.722;2022-11-22T01:23:16;98636.38;;;7.87
15333;BMP180;7766;51.534;6.722;2022-11-22T01:24:17;98629.16;;;7.89
15333;BMP180;7766;51.534;6.722;2022-11-22T01:25:17;98633.72;;;7.93
15333;BMP180;7766;51.534;6.722;2022-11-22T01:26:18;98629.09;;;7.95
15333;BMP180;7766;51.534;6.722;2022-11-22T01:27:19;98635.72;;;7.98
15333;BMP180;7766;51.534;6.722;2022-11-22T01:28:20;98625.63;;;8.01
15333;BMP180;7766;51.534;6.722;2022-11-22T01:29:21;98634.06;;;8.03
15333;BMP180;7766;51.534;6.722;2022-11-22T01:30:22;98627.28;;;7.96
15333;BMP180;7766;51.534;6.722;2022-11-22T01:31:23;98627.91;;;7.92
15333;BMP180;7766;51.534;6.722;2022-11-22T01:32:23;98626.47;;;7.95
15333;BMP180;7766;51.534;6.722;2022-11-22T01:33:24;98622.88;;;7.96
15333;BMP180;7766;51.534;6.722;2022-11-22T01:34:25;98622.78;;;8.03
15333;BMP180;7766;51.534;6.722;2022-11-22T01:35:26;98618.75;;;8.07
15333;BMP180;7766;51.534;6.722;2022-11-22T01:36:27;98625.16;;;8.10
15333;BMP180;7766;51.534;6.722;2022-11-22T01:37:28;98623.94;;;8.13
15333;BMP180;7766;51.534;6.722;2022-11-22T01:38:29;98618.09;;;8.11
15333;BMP180;7766;51.534;6.722;2022-11-22T01:39:30;98621.88;;;8.15
15333;BMP180;7766;51.534;6.722;2022-11-22T01:40:31;98627.97;;;8.09
15333;BMP180;7766;51.534;6.722;2022-11-22T01:41:32;98626.97;;;8.10
15333;BMP180;7766;51.534;6.722;2022-11-22T01:42:51;98634.38;;;8.13
15333;BMP180;7766;51.534;6.722;2022-11-22T01:43:53;98623.94;;;8.13
15333;BMP180;7766;51.534;6.722;2022-11-22T01:44:54;98638.38;;;8.15
15333;BMP180;7766;51.534;6.722;2022-11-22T01:45:57;98630.31;;;8.17
15333;BMP180;7766;51.534;6.722;2022-11-22T01:46:58;98639.91;;;8.23
15333;BMP180;7766;51.534;6.722;2022-11-22T01:49:38;98634.69;;;8.23
15333;BMP180;7766;51.534;6.722;2022-11-22T01:50:43;98636.88;;;8.25
15333;BMP180;7766;51.534;6.722;2022-11-22T01:51:48;98635.13;;;8.20
15333;BMP180;7766;51.534;6.722;2022-11-22T01:52:52;98634.53;;;8.18
15333;BMP180;7766;51.534;6.722;2022-11-22T01:53:57;98634.69;;;8.23
15333;BMP180;7766;51.534;6.722;2022-11-22T01:55:03;98634.53;;;8.18
15333;BMP180;7766;51.534;6.722;2022-11-22T01:56:16;98639.91;;;8.23
15333;BMP180;7766;51.534;6.722;2022-11-22T01:57:23;98633.03;;;8.28
15333;BMP180;7766;51.534;6.722;2022-11-22T01:58:29;98635.78;;;8.33
15333;BMP180;7766;51.534;6.722;2022-11-22T01:59:32;98625.69;;;8.36
15333;BMP180;7766;51.534;6.722;2022-11-22T02:00:34;98636.72;;;8.38
15333;BMP180;7766;51.534;6.722;2022-11-22T02:01:35;98628.09;;;8.38
15333;BMP180;7766;51.534;6.722;2022-11-22T02:02:37;98635.13;;;8.37
15333;BMP180;7766;51.534;6.722;2022-11-22T02:03:40;98643.63;;;8.33
15333;BMP180;7766;51.534;6.722;2022-11-22T02:04:44;98635.94;;;8.38
15333;BMP180;7766;51.534;6.722;2022-11-22T02:05:46;98634.19;;;8.32
15333;BMP180;7766;51.534;6.722;2022-11-22T02:06:58;98637.53;;;8.39
15333;BMP180;7766;51.534;6.722;2022-11-22T02:08:13;98639.63;;;8.30
15333;BMP180;7766;51.534;6.722;2022-11-22T02:09:16;98634.56;;;8.35
15333;BMP180;7766;51.534;6.722;2022-11-22T02:10:19;98638.19;;;8.34
15333;BMP180;7766;51.534;6.722;2022-11-22T02:11:22;98632.78;;;8.29
15333;BMP180;7766;51.534;6.722;2022-11-22T02:12:27;98637.59;;;8.32
15333;BMP180;7766;51.534;6.722;2022-11-22T02:13:31;98637.00;;;8.30
15333;BMP180;7766;51.534;6.722;2022-11-22T02:14:34;98637.16;;;8.35
15333;BMP180;7766;51.534;6.722;2022-11-22T02:15:36;98634.50;;;8.41
15333;BMP180;7766;51.534;6.722;2022-11-22T02:16:37;98640.88;;;8.45
15333;BMP180;7766;51.534;6.722;2022-11-22T02:17:40;98639.88;;;8.46
15333;BMP180;7766;51.534;6.722;2022-11-22T02:18:41;98633.63;;;8.47
15333;BMP180;7766;51.534;6.722;2022-11-22T02:19:44;98627.59;;;8.47
15333;BMP180;7766;51.534;6.722;2022-11-22T02:20:46;98634.84;;;8.45
15333;BMP180;7766;51.534;6.722;2022-11-22T02:21:54;98644.28;;;8.46
15333;BMP180;7766;51.534;6.722;2022-11-22T02:24:39;98643.44;;;8.34
15333;BMP180;7766;51.534;6.722;2022-11-22T02:25:51;98644.59;;;8.38
15333;BMP180;7766;51.534;6.722;2022-11-22T02:26:52;98652.28;;;8.33
15333;BMP180;7766;51.534;6.722;2022-11-22T02:27:53;98647.06;;;8.33
15333;BMP180;7766;51.534;6.722;2022-11-22T02:28:59;98640.72;;;8.23
15333;BMP180;7766;51.534;6.722;2022-11-22T02:30:01;98649.28;;;8.30
15333;BMP180;7766;51.534;6.722;2022-11-22T02:31:02;98649.81;;;8.21
15333;BMP180;7766;51.534;6.722;2022-11-22T02:32:03;98658.16;;;8.29
15333;BMP180;7766;51.534;6.722;2022-11-22T02:33:04;98652.41;;;8.21
15333;BMP180;7766;51.534;6.722;2022-11-22T02:34:06;98659.22;;;8.22
15333;BMP180;7766;51.534;6.722;2022-11-22T02:35:25;98654.75;;;8.28
15333;BMP180;7766;51.534;6.722;2022-11-22T02:36:27;98657.72;;;8.32
15333;BMP180;7766;51.534;6.722;2022-11-22T02:37:30;98661.41;;;8.24
15333;BMP180;7766;51.534;6.722;2022-11-22T02:38:34;98663.16;;;8.30
15333;BMP180;7766;51.534;6.722;2022-11-22T02:39:34;98657.38;;;8.28
15333;BMP180;7766;51.534;6.722;2022-11-22T02:41:56;98651.53;;;8.26
15333;BMP180;7766;51.534;6.722;2022-11-22T02:43:14;98654.00;;;8.22
15333;BMP180;7766;51.534;6.722;2022-11-22T02:44:16;98666.50;;;8.20
15333;BMP180;7766;51.534;6.722;2022-11-22T02:45:17;98670.09;;;8.19
15333;BMP180;7766;51.534;6.722;2022-11-22T15:46:04;98815.22;;;9.22
15333;BMP180;7766;51.534;6.722;2022-11-22T15:47:08;98815.47;;;9.21
15333;BMP180;7766;51.534;6.722;2022-11-22T15:48:28;98808.63;;;9.20
15333;BMP180;7766;51.534;6.722;2022-11-22T15:49:30;98811.38;;;9.25
15333;BMP180;7766;51.534;6.722;2022-11-22T15:50:31;98822.88;;;9.24
15333;BMP180;7766;51.534;6.722;2022-11-22T15:52:26;98821.22;;;9.29
15333;BMP180;7766;51.534;6.722;2022-11-22T15:53:28;98820.97;;;9.31
15333;BMP180;7766;51.534;6.722;2022-11-22T15:54:37;98848.00;;;9.31
15333;BMP180;7766;51.534;6.722;2022-11-22T15:55:39;98832.84;;;9.33
15333;BMP180;7766;51.534;6.722;2022-11-22T15:56:46;98830.81;;;9.35
15333;BMP180;7766;51.534;6.722;2022-11-22T15:57:52;98822.50;;;9.38
15333;BMP180;7766;51.534;6.722;2022-11-22T15:58:55;98833.00;;;9.38
15333;BMP180;7766;51.534;6.722;2022-11-22T15:59:57;98832.78;;;9.39
15333;BMP180;7766;51.534;6.722;2022-11-22T16:01:02;98841.38;;;9.46
15333;BMP180;7766;51.534;6.722;2022-11-22T16:02:18;98837.59;;;9.42
15333;BMP180;7766;51.534;6.722;2022-11-22T16:03:25;98844.41;;;9.43
15333;BMP180;7766;51.534;6.722;2022-11-22T16:04:29;98837.50;;;9.49
15333;BMP180;7766;51.534;6.722;2022-11-22T16:05:34;98839.81;;;9.56
15333;BMP180;7766;51.534;6.722;2022-11-22T16:06:36;98844.88;;;9.58
15333;BMP180;7766;51.534;6.722;2022-11-22T16:07:46;98838.25;;;9.55
15333;BMP180;7766;51.534;6.722;2022-11-22T16:08:52;98839.25;;;9.54
15333;BMP180;7766;51.534;6.722;2022-11-22T16:09:53;98856.88;;;9.48
15333;BMP180;7766;51.534;6.722;2022-11-22T16:10:54;98845.38;;;9.49
15333;BMP180;7766;51.534;6.722;2022-11-22T16:11:56;98852.78;;;9.51
15333;BMP180;7766;51.534;6.722;2022-11-22T16:13:24;98860.78;;;9.56
15333;BMP180;7766;51.534;6.722;2022-11-22T16:15:44;98859.22;;;9.55
15333;BMP180;7766;51.534;6.722;2022-11-22T16:17:34;98857.59;;;9.54
15333;BMP180;7766;51.534;6.722;2022-11-22T16:18:36;98857.03;;;9.52
15333;BMP180;7766;51.534;6.722;2022-11-22T16:19:37;98861.66;;;9.51
15333;BMP180;7766;51.534;6.722;2022-11-22T16:21:00;98860.22;;;9.54
15333;BMP180;7766;51.534;6.722;2022-11-22T16:22:02;98851.41;;;9.49
15333;BMP180;7766;51.534;6.722;2022-11-22T16:24:17;98857.03;;;9.52
15333;BMP180;7766;51.534;6.722;2022-11-22T16:25:27;98856.41;;;9.51
15333;BMP180;7766;51.534;6.722;2022-11-22T16:26:30;98859.78;;;9.57
15333;BMP180;7766;51.534;6.722;2022-11-22T16:27:31;98851.94;;;9.57
15333;BMP180;7766;51.534;6.722;2022-11-22T16:28:36;98856.41;;;9.51
15333;BMP180;7766;51.534;6.722;2022-11-22T16:29:37;98861.22;;;9.53
15333;BMP180;7766;51.534;6.722;2022-11-22T16:30:43;98866.03;;;9.56
15333;BMP180;7766;51.534;6.722;2022-11-22T16:31:43;98859.28;;;9.49
15333;BMP180;7766;51.534;6.722;2022-11-22T16:32:46;98858.19;;;9.39
15333;BMP180;7766;51.534;6.722;2022-11-22T16:33:48;98854.31;;;9.41
15333;BMP180;7766;51.534;6.722;2022-11-22T16:34:50;98866.72;;;9.35
15333;BMP180;7766;51.534;6.722;2022-11-22T16:35:52;98862.25;;;9.35
15333;BMP180;7766;51.534;6.722;2022-11-22T16:36:54;98865.47;;;9.37
15333;BMP180;7766;51.534;6.722;2022-11-22T16:37:55;98865.91;;;9.34
15333;BMP180;7766;51.534;6.722;2022-11-22T16:38:57;98872.47;;;9.19
15333;BMP180;7766;51.534;6.722;2022-11-22T16:39:58;98876.47;;;9.21
15333;BMP180;7766;51.534;6.722;2022-11-22T16:41:00;98870.09;;;9.18
15333;BMP180;7766;51.534;6.722;2022-11-22T16:42:01;98869.66;;;9.20
15333;BMP180;7766;51.534;6.722;2022-11-22T16:43:04;98874.53;;;9.17
15333;BMP180;7766;51.534;6.722;2022-11-22T16:44:11;98875.56;;;9.16
15333;BMP180;7766;51.534;6.722;2022-11-22T16:45:19;98883.03;;;9.13
15333;BMP180;7766;51.534;6.722;2022-11-22T16:46:20;98876.94;;;9.19
15333;BMP180;7766;51.534;6.722;2022-11-22T16:47:21;98880.34;;;9.19
15333;BMP180;7766;51.534;6.722;2022-11-22T16:48:24;98888.81;;;9.21
15333;BMP180;7766;51.534;6.722;2022-11-22T16:49:25;98893.81;;;9.22
15333;BMP180;7766;51.534;6.722;2022-11-22T16:50:26;98883.34;;;9.22
15333;BMP180;7766;51.534;6.722;2022-11-22T16:51:28;98883.34;;;9.22
15333;BMP180;7766;51.534;6.722;2022-11-22T16:52:29;98885.59;;;9.19
15333;BMP180;7766;51.534;6.722;2022-11-22T16:54:38;98879.34;;;9.20
15333;BMP180;7766;51.534;6.722;2022-11-22T16:55:40;98879.09;;;9.21
15333;BMP180;7766;51.534;6.722;2022-11-22T16:56:42;98892.66;;;9.19
15333;BMP180;7766;51.534;6.722;2022-11-22T16:57:43;98872.13;;;9.16
15333;BMP180;7766;51.534;6.722;2022-11-22T16:58:45;98885.94;;;9.05
15333;BMP180;7766;51.534;6.722;2022-11-22T16:59:46;98894.38;;;9.07
15333;BMP180;7766;51.534;6.722;2022-11-22T17:00:48;98889.09;;;9.13
15333;BMP180;7766;51.534;6.722;2022-11-22T17:01:50;98890.31;;;9.11
15333;BMP180;7766;51.534;6.722;2022-11-22T17:02:51;98882.66;;;9.09
15333;BMP180;7766;51.534;6.722;2022-11-22T17:03:56;98888.06;;;9.14
15333;BMP180;7766;51.534;6.722;2022-11-22T17:04:58;98892.47;;;9.14
15333;BMP180;7766;51.534;6.722;2022-11-22T17:05:59;98889.88;;;9.14
15333;BMP180;7766;51.534;6.722;2022-11-22T17:07:00;98894.38;;;9.07
15333;BMP180;7766;51.534;6.722;2022-11-22T17:08:01;98894.00;;;9.03
15333;BMP180;7766;51.534;6.722;2022-11-22T17:09:03;98883.94;;;9.01
15333;BMP180;7766;51.534;6.722;2022-11-22T17:10:04;98891.19;;;9.05
15333;BMP180;7766;51.534;6.722;2022-11-22T17:11:07;98891.19;;;9.05
15333;BMP180;7766;51.534;6.722;2022-11-22T17:12:13;98889.56;;;9.04
15333;BMP180;7766;51.534;6.722;2022-11-22T17:13:22;98896.75;;;9.08
15333;BMP180;7766;51.534;6.722;2022-11-22T17:14:25;98890.75;;;9.08
15333;BMP180;7766;51.534;6.722;2022-11-22T17:15:26;98887.91;;;9.09
15333;BMP180;7766;51.534;6.722;2022-11-22T17:16:27;98888.47;;;9.11
15333;BMP180;7766;51.534;6.722;2022-11-22T17:17:28;98898.19;;;9.11
15333;BMP180;7766;51.534;6.722;2022-11-22T17:18:29;98897.13;;;9.12
15333;BMP180;7766;51.534;6.722;2022-11-22T17:19:30;98898.97;;;9.11
15333;BMP180;7766;51.534;6.722;2022-11-22T17:20:31;98899.34;;;9.15
15333;BMP180;7766;51.534;6.722;2022-11-22T17:21:32;98900.94;;;9.16
15333;BMP180;7766;51.534;6.722;2022-11-22T17:22:33;98900.28;;;9.20
15333;BMP180;7766;51.534;6.722;2022-11-22T17:23:36;98903.34;;;9.17
15333;BMP180;7766;51.534;6.722;2022-11-22T17:24:38;98900.06;;;9.21
15333;BMP180;7766;51.534;6.722;2022-11-22T17:25:38;98905.09;;;9.23
15333;BMP180;7766;51.534;6.722;2022-11-22T17:26:39;98897.94;;;9.12
15333;BMP180;7766;51.534;6.722;2022-11-22T17:27:40;98907.56;;;9.18
15333;BMP180;7766;51.534;6.722;2022-11-22T17:28:42;98890.25;;;9.17
15333;BMP180;7766;51.534;6.722;2022-11-22T17:29:43;98909.22;;;9.13
15333;BMP180;7766;51.534;6.722;2022-11-22T17:30:44;98904.00;;;9.13
15333;BMP180;7766;51.534;6.722;2022-11-22T17:31:46;98914.50;;;9.06
15333;BMP180;7766;51.534;6.722;2022-11-22T17:32:48;98904.63;;;9.08
15333;BMP180;7766;51.534;6.722;2022-11-22T17:33:50;98910.94;;;9.01
15333;BMP180;7766;51.534;6.722;2022-11-22T17:34:51;98919.47;;;8.90
15333;BMP180;7766;51.534;6.722;2022-11-22T17:35:53;98918.06;;;8.94
15333;BMP180;7766;51.534;6.722;2022-11-22T17:36:54;98912.97;;;8.99
15333;BMP180;7766;51.534;6.722;2022-11-22T17:37:55;98907.50;;;9.01
15333;BMP180;7766;51.534;6.722;2022-11-22T17:38:57;98909.34;;;9.00
15333;BMP180;7766;51.534;6.722;2022-11-22T17:39:58;98913.41;;;8.96
15333;BMP180;7766;51.534;6.722;2022-11-22T17:41:00;98918.06;;;8.94
15333;BMP180;7766;51.534;6.722;2022-11-22T17:42:01;98914.22;;;8.97
15333;BMP180;7766;51.534;6.722;2022-11-22T17:43:02;98923.06;;;8.96
15333;BMP180;7766;51.534;6.722;2022-11-22T17:44:03;98908.59;;;8.93
15333;BMP180;7766;51.534;6.722;2022-11-22T17:45:05;98923.06;;;8.96
15333;BMP180;7766;51.534;6.722;2022-11-22T17:46:06;98924.28;;;8.93
15333;BMP180;7766;51.534;6.722;2022-11-22T17:47:07;98923.72;;;8.91
15333;BMP180;7766;51.534;6.722;2022-11-22T17:48:12;98923.34;;;8.88
15333;BMP180;7766;51.534;6.722;2022-11-22T17:49:13;98925.56;;;8.85
15333;BMP180;7766;51.534;6.722;2022-11-22T17:50:15;98919.16;;;8.81
15333;BMP180;7766;51.534;6.722;2022-11-22T17:51:16;98918.53;;;8.85
15333;BMP180;7766;51.534;6.722;2022-11-22T17:52:17;98923.72;;;8.91
15333;BMP180;7766;51.534;6.722;2022-11-22T17:53:17;98912.44;;;8.91
15333;BMP180;7766;51.534;6.722;2022-11-22T17:54:18;98925.91;;;8.94
15333;BMP180;7766;51.534;6.722;2022-11-22T17:55:19;98922.53;;;8.88
15333;BMP180;7766;51.534;6.722;2022-11-22T17:56:20;98926.34;;;8.91
15333;BMP180;7766;51.534;6.722;2022-11-22T17:57:21;98931.72;;;8.96
15333;BMP180;7766;51.534;6.722;2022-11-22T17:58:22;98928.31;;;8.96
15333;BMP180;7766;51.534;6.722;2022-11-22T17:59:23;98930.31;;;9.00
15333;BMP180;7766;51.534;6.722;2022-11-22T18:00:24;98940.41;;;8.97
15333;BMP180;7766;51.534;6.722;2022-11-22T18:01:25;98934.72;;;9.00
15333;BMP180;7766;51.534;6.722;2022-11-22T18:02:26;98932.69;;;9.02
15333;BMP180;7766;51.534;6.722;2022-11-22T18:03:27;98940.72;;;9.06
15333;BMP180;7766;51.534;6.722;2022-11-22T18:04:28;98938.31;;;9.05
15333;BMP180;7766;51.534;6.722;2022-11-22T18:05:32;98938.25;;;9.11
15333;BMP180;7766;51.534;6.722;2022-11-22T18:06:33;98940.28;;;9.09
15333;BMP180;7766;51.534;6.722;2022-11-22T18:07:35;98936.22;;;9.13
15333;BMP180;7766;51.534;6.722;2022-11-22T18:08:38;98942.88;;;9.16
15333;BMP180;7766;51.534;6.722;2022-11-22T18:09:40;98939.34;;;9.21
15333;BMP180;7766;51.534;6.722;2022-11-22T18:10:41;98943.59;;;9.22
15333;BMP180;7766;51.534;6.722;2022-11-22T18:11:41;98944.16;;;9.24
15333;BMP180;7766;51.534;6.722;2022-11-22T18:12:43;98945.47;;;9.16
15333;BMP180;7766;51.534;6.722;2022-11-22T18:13:44;98943.91;;;9.08
15333;BMP180;7766;51.534;6.722;2022-11-22T18:14:44;98939.47;;;9.09
15333;BMP180;7766;51.534;6.722;2022-11-22T18:15:54;98941.94;;;9.04
15333;BMP180;7766;51.534;6.722;2022-11-22T18:16:56;98942.69;;;9.11
15333;BMP180;7766;51.534;6.722;2022-11-22T18:17:57;98940.44;;;9.14
15333;BMP180;7766;51.534;6.722;2022-11-22T18:18:58;98941.63;;;9.18
15333;BMP180;7766;51.534;6.722;2022-11-22T18:20:00;98949.25;;;9.19
15333;BMP180;7766;51.534;6.722;2022-11-22T18:21:02;98944.97;;;9.25
15333;BMP180;7766;51.534;6.722;2022-11-22T18:22:03;98942.44;;;9.19
15333;BMP180;7766;51.534;6.722;2022-11-22T18:23:04;98940.97;;;9.22
15333;BMP180;7766;51.534;6.722;2022-11-22T18:24:06;98946.00;;;9.24
15333;BMP180;7766;51.534;6.722;2022-11-22T18:25:08;98948.78;;;9.29
15333;BMP180;7766;51.534;6.722;2022-11-22T18:26:10;98950.78;;;9.27
15333;BMP180;7766;51.534;6.722;2022-11-22T18:27:11;98943.81;;;9.21
15333;BMP180;7766;51.534;6.722;2022-11-22T18:28:12;98944.94;;;9.07
15333;BMP180;7766;51.534;6.722;2022-11-22T18:29:13;98949.53;;;9.12
15333;BMP180;7766;51.534;6.722;2022-11-22T18:30:14;98946.31;;;9.10
15333;BMP180;7766;51.534;6.722;2022-11-22T18:31:15;98940.25;;;9.16
15333;BMP180;7766;51.534;6.722;2022-11-22T18:32:16;98950.34;;;9.12
15333;BMP180;7766;51.534;6.722;2022-11-22T18:33:17;98947.88;;;9.17
15333;BMP180;7766;51.534;6.722;2022-11-22T18:34:18;98945.41;;;9.22
15333;BMP180;7766;51.534;6.722;2022-11-22T18:35:19;98951.31;;;9.18
15333;BMP180;7766;51.534;6.722;2022-11-22T18:36:25;98961.53;;;9.19
15333;BMP180;7766;51.534;6.722;2022-11-22T18:37:26;98951.31;;;9.18
15333;BMP180;7766;51.534;6.722;2022-11-22T18:38:27;98954.66;;;9.24
15333;BMP180;7766;51.534;6.722;2022-11-22T18:39:33;98951.44;;;9.22
15333;BMP180;7766;51.534;6.722;2022-11-22T18:40:34;98954.66;;;9.24
15333;BMP180;7766;51.534;6.722;2022-11-22T18:41:35;98957.88;;;9.26
15333;BMP180;7766;51.534;6.722;2022-11-22T18:42:36;98954.22;;;9.27
15333;BMP180;7766;51.534;6.722;2022-11-22T18:43:38;98958.03;;;9.31
15333;BMP180;7766;51.534;6.722;2022-11-22T18:44:39;98958.63;;;9.33
15333;BMP180;7766;51.534;6.722;2022-11-22T18:45:40;98953.81;;;9.30
15333;BMP180;7766;51.534;6.722;2022-11-22T18:46:41;98952.03;;;9.24
15333;BMP180;7766;51.534;6.722;2022-11-22T18:47:43;98956.69;;;9.22
15333;BMP180;7766;51.534;6.722;2022-11-22T18:48:47;98954.84;;;9.29
15333;BMP180;7766;51.534;6.722;2022-11-22T18:49:47;98960.28;;;9.28
15333;BMP180;7766;51.534;6.722;2022-11-22T18:50:48;98956.03;;;9.27
15333;BMP180;7766;51.534;6.722;2022-11-22T18:51:49;98943.31;;;9.30
15333;BMP180;7766;51.534;6.722;2022-11-22T18:52:50;98957.06;;;9.26
15333;BMP180;7766;51.534;6.722;2022-11-22T18:53:51;98950.78;;;9.27
15333;BMP180;7766;51.534;6.722;2022-11-22T18:54:52;98951.84;;;9.26
15333;BMP180;7766;51.534;6.722;2022-11-22T18:56:00;98952.22;;;9.29
15333;BMP180;7766;51.534;6.722;2022-11-22T18:57:01;98949.41;;;9.24
15333;BMP180;7766;51.534;6.722;2022-11-22T18:58:02;98944.81;;;9.20
15333;BMP180;7766;51.534;6.722;2022-11-22T18:59:03;98935.31;;;9.25
15333;BMP180;7766;51.534;6.722;2022-11-22T19:00:06;98947.59;;;9.25
15333;BMP180;7766;51.534;6.722;2022-11-22T19:01:11;98940.41;;;9.20
15333;BMP180;7766;51.534;6.722;2022-11-22T19:02:13;98948.09;;;9.16
15333;BMP180;7766;51.534;6.722;2022-11-22T19:03:14;98945.47;;;9.16
15333;BMP180;7766;51.534;6.722;2022-11-22T19:04:15;98955.53;;;9.19
15333;BMP180;7766;51.534;6.722;2022-11-22T19:05:16;98964.13;;;9.25
15333;BMP180;7766;51.534;6.722;2022-11-22T19:06:18;98961.34;;;9.20
15333;BMP180;7766;51.534;6.722;2022-11-22T19:07:20;98962.94;;;9.21
15333;BMP180;7766;51.534;6.722;2022-11-22T19:08:21;98961.94;;;9.22
15333;BMP180;7766;51.534;6.722;2022-11-22T19:09:22;98956.13;;;9.20
15333;BMP180;7766;51.534;6.722;2022-11-22T19:10:23;98958.94;;;9.19
15333;BMP180;7766;51.534;6.722;2022-11-22T19:11:24;98964.13;;;9.25
15333;BMP180;7766;51.534;6.722;2022-11-22T19:12:25;98945.41;;;9.22
15333;BMP180;7766;51.534;6.722;2022-11-22T19:13:26;98955.47;;;9.25
15333;BMP180;7766;51.534;6.722;2022-11-22T19:14:27;98967.13;;;9.29
15333;BMP180;7766;51.534;6.722;2022-11-22T19:15:28;98965.31;;;9.29
15333;BMP180;7766;51.534;6.722;2022-11-22T19:16:30;98966.69;;;9.32
15333;BMP180;7766;51.534;6.722;2022-11-22T19:17:31;98968.50;;;9.31
15333;BMP180;7766;51.534;6.722;2022-11-22T19:18:32;98961.47;;;9.32
15333;BMP180;7766;51.534;6.722;2022-11-22T19:19:34;98962.34;;;9.19